Time;durP1;ratioP1;P1;durP2;ratioP2;P2;SDS_P1;SDS_P2;PMS_P1;PMS_P2;Temp;Humidity;BMP_temperature;BMP_pressure;BME280_temperature;BME280_humidity;BME280_pressure;Samples;Min_cycle;Max_cycle;Signal;HPM_P1;HPM_P2
2022/07/14 00:00:07;;;;;;;;;;;;;;;24.91;30.92;100563.84;5387797;32;45356;-77
2022/07/14 00:03:09;;;;;;;;;;;;;;;24.39;31.92;100565.28;5397070;32;34692;-76
2022/07/14 00:06:11;;;;;;;;;;;;;;;24.37;32.09;100557.38;5384581;32;36099;-77
2022/07/14 00:09:13;;;;;;;;;;;;;;;24.96;31.04;100552.66;5412817;32;35391;-78
2022/07/14 00:12:16;;;;;;;;;;;;;;;24.89;31.23;100563.16;5389723;32;36385;-73
2022/07/14 00:15:18;;;;;;;;;;;;;;;24.78;31.28;100558.81;5411278;32;35022;-78
2022/07/14 00:18:20;;;;;;;;;;;;;;;25.23;30.59;100555.37;5394701;32;35394;-77
2022/07/14 00:21:22;;;;;;;;;;;;;;;25.13;30.47;100554.59;5412159;32;35631;-76
2022/07/14 00:24:24;;;;;;;;;;;;;;;24.57;31.52;100560.88;5387066;32;35144;-77
2022/07/14 00:27:26;;;;;;;;;;;;;;;24.52;31.87;100560.44;5397342;32;35931;-71
2022/07/14 00:30:28;;;;;;;;;;;;;;;23.95;33.11;100557.66;5399994;32;35543;-80
2022/07/14 00:33:30;;;;;;;;;;;;;;;24.27;32.70;100554.66;5395875;32;35619;-78
2022/07/14 00:36:32;;;;;;;;;;;;;;;24.81;31.71;100560.38;5396972;32;35993;-72
2022/07/14 00:42:55;;;;;;;;;;;;;;;23.83;33.81;100566.88;5411611;32;34659;-73
2022/07/14 00:45:57;;;;;;;;;;;;;;;24.19;33.16;100565.28;5405520;32;35627;-73
2022/07/14 00:48:59;;;;;;;;;;;;;;;24.27;33.23;100560.03;5397689;32;36303;-71
2022/07/14 00:52:02;;;;;;;;;;;;;;;23.46;34.72;100567.50;5414918;32;35657;-76
2022/07/14 00:55:04;;;;;;;;;;;;;;;23.77;34.44;100578.19;5383785;32;36084;-72
2022/07/14 00:58:07;;;;;;;;;;;;;;;23.68;34.30;100566.44;5405320;32;43335;-72
2022/07/14 01:01:09;;;;;;;;;;;;;;;23.91;34.20;100576.91;5384098;32;35015;-77
2022/07/14 01:04:12;;;;;;;;;;;;;;;24.51;33.24;100566.81;5406334;32;35051;-72
2022/07/14 01:07:15;;;;;;;;;;;;;;;23.99;34.17;100561.78;5410663;32;34774;-77
2022/07/14 01:10:17;;;;;;;;;;;;;;;23.56;34.79;100559.47;5396447;32;35843;-78
2022/07/14 01:13:19;;;;;;;;;;;;;;;23.72;34.68;100561.63;5414075;32;35307;-72
2022/07/14 01:16:21;;;;;;;;;;;;;;;23.38;35.20;100571.84;5383095;32;34573;-77
2022/07/14 01:19:23;;;;;;;;;;;;;;;23.68;34.83;100565.59;5413718;32;35494;-77
2022/07/14 01:22:25;;;;;;;;;;;;;;;24.10;33.81;100560.78;5400085;32;35893;-72
2022/07/14 01:25:27;;;;;;;;;;;;;;;23.68;34.29;100569.13;5394873;32;35330;-73
2022/07/14 01:28:30;;;;;;;;;;;;;;;23.76;34.39;100571.97;5413883;32;35663;-73
2022/07/14 01:31:32;;;;;;;;;;;;;;;23.28;35.33;100577.19;5399646;32;35082;-78
2022/07/14 01:34:34;;;;;;;;;;;;;;;23.99;34.00;100572.50;5387948;32;35447;-77
2022/07/14 01:37:36;;;;;;;;;;;;;;;22.89;36.17;100574.38;5395758;32;44639;-76
2022/07/14 01:40:38;;;;;;;;;;;;;;;23.68;34.92;100563.75;5412942;32;35364;-72
2022/07/14 01:43:41;;;;;;;;;;;;;;;23.40;35.26;100548.44;5396491;32;35147;-71
2022/07/14 01:46:43;;;;;;;;;;;;;;;23.85;34.62;100559.53;5396874;32;35578;-71
2022/07/14 01:49:45;;;;;;;;;;;;;;;24.13;33.76;100547.06;5404079;32;35406;-73
2022/07/14 01:52:47;;;;;;;;;;;;;;;23.60;35.02;100552.00;5405292;32;35177;-70
2022/07/14 01:55:49;;;;;;;;;;;;;;;23.47;35.44;100552.25;5412527;32;35954;-76
2022/07/14 01:58:51;;;;;;;;;;;;;;;24.03;34.58;100551.63;5369614;32;35298;-72
2022/07/14 02:01:53;;;;;;;;;;;;;;;23.55;35.54;100549.72;5406607;32;35131;-77
2022/07/14 02:04:55;;;;;;;;;;;;;;;23.41;35.88;100548.28;5396677;32;36005;-72
2022/07/14 02:07:57;;;;;;;;;;;;;;;23.40;35.67;100545.75;5406572;32;35908;-73
2022/07/14 02:14:19;;;;;;;;;;;;;;;24.95;32.57;100545.59;5396719;32;35776;-78
2022/07/14 02:17:21;;;;;;;;;;;;;;;;;;5414484;32;34830;-79
2022/07/14 02:20:25;;;;;;;;;;;;;;;23.77;34.61;100557.56;5396808;32;33925;-77
2022/07/14 02:23:27;;;;;;;;;;;;;;;23.96;34.36;100543.28;5410239;32;36150;-78
2022/07/14 02:26:29;;;;;;;;;;;;;;;24.59;32.95;100554.34;5401834;32;35398;-74
2022/07/14 02:29:31;;;;;;;;;;;;;;;24.36;33.25;100552.16;5396159;32;35607;-73
2022/07/14 02:32:33;;;;;;;;;;;;;;;23.91;34.31;100550.91;5413446;32;35521;-73
2022/07/14 02:35:35;;;;;;;;;;;;;;;23.74;34.47;100565.87;5393362;32;36021;-76
2022/07/14 02:38:37;;;;;;;;;;;;;;;24.03;34.23;100560.50;5412502;32;44462;-72
2022/07/14 02:41:40;;;;;;;;;;;;;;;24.80;32.66;100564.91;5398074;32;35918;-77
2022/07/14 02:44:42;;;;;;;;;;;;;;;24.20;34.02;100566.97;5407189;32;35362;-77
2022/07/14 02:47:45;;;;;;;;;;;;;;;23.97;34.43;100565.59;5405433;32;37128;-73
2022/07/14 02:50:47;;;;;;;;;;;;;;;24.28;33.92;100561.75;5395347;32;36100;-72
2022/07/14 02:53:49;;;;;;;;;;;;;;;24.33;33.80;100553.25;5412974;32;35558;-78
2022/07/14 02:56:51;;;;;;;;;;;;;;;23.73;35.04;100574.06;5392910;32;35529;-77
2022/07/14 02:59:53;;;;;;;;;;;;;;;24.18;34.16;100563.59;5388358;32;35392;-78
2022/07/14 03:02:54;;;;;;;;;;;;;;;24.20;34.36;100569.66;5396816;32;36020;-78
2022/07/14 03:05:56;;;;;;;;;;;;;;;24.60;33.76;100574.00;5405025;32;35962;-72
2022/07/14 03:08:58;;;;;;;;;;;;;;;23.44;35.97;100582.03;5420067;32;36313;-73
2022/07/14 03:12:00;;;;;;;;;;;;;;;24.39;34.39;100573.34;5397191;32;36933;-72
2022/07/14 03:15:02;;;;;;;;;;;;;;;23.61;35.59;100578.72;5413225;32;35351;-72
2022/07/14 03:18:05;;;;;;;;;;;;;;;23.04;37.62;100588.25;5398817;32;35845;-77
2022/07/14 03:21:08;;;;;;;;;;;;;;;23.36;37.14;100588.09;5404000;32;44696;-72
2022/07/14 03:24:10;;;;;;;;;;;;;;;23.54;36.70;100590.94;5400325;32;36203;-71
2022/07/14 03:27:12;;;;;;;;;;;;;;;24.05;35.65;100584.53;5404426;32;34810;-76
2022/07/14 03:30:14;;;;;;;;;;;;;;;24.12;35.65;100580.28;5405359;32;37990;-78
2022/07/14 03:33:16;;;;;;;;;;;;;;;24.05;35.87;100579.16;5394756;32;36398;-73
2022/07/14 03:36:19;;;;;;;;;;;;;;;24.32;35.05;100581.94;5409684;32;35336;-72
2022/07/14 03:39:21;;;;;;;;;;;;;;;23.43;37.07;100586.53;5395095;32;35296;-77
2022/07/14 03:42:23;;;;;;;;;;;;;;;24.25;35.26;100580.84;5412482;32;35244;-70
2022/07/14 03:45:25;;;;;;;;;;;;;;;24.04;34.90;100581.00;5393550;32;36237;-76
2022/07/14 03:48:27;;;;;;;;;;;;;;;23.76;36.24;100571.09;5401672;32;33729;-78
2022/07/14 03:51:29;;;;;;;;;;;;;;;23.48;37.16;100586.97;5409101;32;36102;-72
2022/07/14 03:54:31;;;;;;;;;;;;;;;24.25;36.00;100575.47;5391344;32;35288;-72
2022/07/14 03:57:33;;;;;;;;;;;;;;;23.98;36.51;100570.81;5413607;32;36147;-80
2022/07/14 04:00:35;;;;;;;;;;;;;;;24.02;36.68;100576.75;5376989;32;44680;-73
2022/07/14 04:03:37;;;;;;;;;;;;;;;24.68;35.37;100573.28;5416951;32;34774;-78
2022/07/14 04:06:39;;;;;;;;;;;;;;;24.27;35.72;100578.84;5393298;32;35370;-76
2022/07/14 04:09:41;;;;;;;;;;;;;;;24.41;34.90;100577.59;5391615;32;36908;-76
2022/07/14 04:12:44;;;;;;;;;;;;;;;24.70;35.44;100574.81;5400127;32;35474;-71
2022/07/14 04:15:45;;;;;;;;;;;;;;;25.53;33.77;100583.78;5400598;32;36277;-77
2022/07/14 04:18:47;;;;;;;;;;;;;;;24.73;34.50;100584.44;5408406;32;35666;-71
2022/07/14 04:21:49;;;;;;;;;;;;;;;24.94;34.17;100581.53;5406095;32;35697;-76
2022/07/14 04:25:12;;;;;;;;;;;;;;;24.63;34.59;100583.63;5415044;32;44986;-76
2022/07/14 04:28:15;;;;;;;;;;;;;;;25.86;32.18;100573.38;5402845;32;36772;-71
2022/07/14 04:31:17;;;;;;;;;;;;;;;25.67;32.90;100585.13;5402400;32;36353;-71
2022/07/14 04:34:19;;;;;;;;;;;;;;;25.39;33.44;100581.62;5414419;32;35942;-77
2022/07/14 04:37:21;;;;;;;;;;;;;;;26.34;31.50;100572.97;5386836;32;35667;-79
2022/07/14 04:40:23;;;;;;;;;;;;;;;27.00;30.28;100574.22;5416304;32;35217;-76
2022/07/14 04:43:25;;;;;;;;;;;;;;;27.75;29.22;100569.75;5400777;32;35654;-78
2022/07/14 04:46:27;;;;;;;;;;;;;;;28.53;27.90;100566.59;5416577;32;34831;-71
2022/07/14 04:52:50;;;;;;;;;;;;;;;29.45;27.00;100558.81;5401858;32;33333;-71
2022/07/14 04:55:53;;;;;;;;;;;;;;;29.62;26.60;100560.41;5404146;32;35665;-72
2022/07/14 04:58:55;;;;;;;;;;;;;;;30.13;25.99;100555.28;5371003;32;35602;-68
2022/07/14 05:01:57;;;;;;;;;;;;;;;29.79;26.70;100558.44;5395057;32;35647;-69
2022/07/14 05:04:59;;;;;;;;;;;;;;;29.09;28.16;100567.44;5398993;32;35577;-73
2022/07/14 05:08:01;;;;;;;;;;;;;;;29.29;28.00;100570.56;5410685;32;35150;-68
2022/07/14 05:11:03;;;;;;;;;;;;;;;27.99;29.67;100566.25;5415869;32;35707;-67
2022/07/14 05:14:06;;;;;;;;;;;;;;;28.55;28.29;100561.84;5395497;32;44520;-69
2022/07/14 05:17:08;;;;;;;;;;;;;;;30.83;25.16;100572.25;5419226;32;35636;-67
2022/07/14 05:20:16;;;;;;;;;;;;;;;30.38;26.19;100571.34;5378284;32;34843;-67
2022/07/14 05:23:18;;;;;;;;;;;;;;;29.76;27.14;100574.22;5396400;32;35056;-71
2022/07/14 05:26:20;;;;;;;;;;;;;;;30.81;25.53;100574.31;5401146;32;35392;-68
2022/07/14 05:29:22;;;;;;;;;;;;;;;30.97;25.12;100572.25;5399363;32;36283;-68
2022/07/14 05:32:24;;;;;;;;;;;;;;;31.62;24.41;100575.16;5412918;32;34804;-68
2022/07/14 05:35:27;;;;;;;;;;;;;;;31.33;25.13;100571.50;5378089;32;35871;-69
2022/07/14 05:38:31;;;;;;;;;;;;;;;33.10;22.55;100575.13;5410290;32;35739;-69
2022/07/14 05:41:33;;;;;;;;;;;;;;;32.39;23.20;100566.28;5382648;32;35436;-71
2022/07/14 05:44:35;;;;;;;;;;;;;;;32.14;23.30;100558.56;5410812;32;35347;-73
2022/07/14 05:47:37;;;;;;;;;;;;;;;33.65;21.35;100556.91;5393650;32;45231;-69
2022/07/14 05:50:39;;;;;;;;;;;;;;;32.40;22.62;100554.41;5391814;32;35328;-68
2022/07/14 05:53:42;;;;;;;;;;;;;;;32.68;22.96;100549.75;5392443;32;36203;-72
2022/07/14 05:56:44;;;;;;;;;;;;;;;33.16;22.12;100557.97;5378678;32;36079;-68
2022/07/14 05:59:45;;;;;;;;;;;;;;;33.66;21.45;100555.84;5381252;32;34845;-68
2022/07/14 06:02:49;;;;;;;;;;;;;;;33.68;21.78;100556.47;5392223;32;35592;-69
2022/07/14 06:06:03;;;;;;;;;;;;;;;34.22;21.16;100547.34;5399274;32;36018;-75
2022/07/14 06:09:05;;;;;;;;;;;;;;;32.79;22.81;100541.03;5382149;32;34662;-70
2022/07/14 06:12:08;;;;;;;;;;;;;;;34.95;20.57;100547.25;5393183;32;44526;-73
2022/07/14 06:15:10;;;;;;;;;;;;;;;35.03;19.79;100538.78;5394614;32;34983;-71
2022/07/14 06:18:12;;;;;;;;;;;;;;;33.57;21.54;100543.50;5392218;32;34829;-67
2022/07/14 06:21:14;;;;;;;;;;;;;;;33.46;21.59;100539.47;5410404;32;34690;-71
2022/07/14 06:24:16;;;;;;;;;;;;;;;34.15;20.61;100535.59;5391210;32;34624;-73
2022/07/14 06:27:18;;;;;;;;;;;;;;;34.54;20.34;100536.63;5403641;32;37206;-71
2022/07/14 06:30:20;;;;;;;;;;;;;;;33.48;20.92;100539.25;5402979;32;34224;-72
2022/07/14 06:33:22;;;;;;;;;;;;;;;35.27;19.66;100537.22;5397284;32;34694;-72
2022/07/14 06:36:24;;;;;;;;;;;;;;;35.88;18.25;100528.47;5408768;32;34775;-74
2022/07/14 06:39:26;;;;;;;;;;;;;;;36.18;18.16;100525.91;5390998;32;35063;-72
2022/07/14 06:42:29;;;;;;;;;;;;;;;34.58;19.71;100533.25;5418510;32;36546;-75
2022/07/14 06:45:31;;;;;;;;;;;;;;;35.33;19.15;100528.16;5383769;32;35026;-72
2022/07/14 06:48:33;;;;;;;;;;;;;;;36.35;17.92;100526.16;5398506;32;36518;-89
2022/07/14 06:51:35;;;;;;;;;;;;;;;36.88;17.29;100520.16;5396190;32;42642;-79
2022/07/14 06:54:38;;;;;;;;;;;;;;;36.52;17.67;100518.25;5395487;32;34853;-74
2022/07/14 06:57:41;;;;;;;;;;;;;;;36.45;17.70;100515.56;5412309;32;34649;-85
2022/07/14 07:00:43;;;;;;;;;;;;;;;36.33;18.02;100511.87;5366281;32;34729;-82
2022/07/14 07:03:45;;;;;;;;;;;;;;;36.57;17.05;100512.91;5400949;32;34200;-71
2022/07/14 07:06:47;;;;;;;;;;;;;;;35.66;18.07;100516.19;5403284;32;37402;-68
2022/07/14 07:09:49;;;;;;;;;;;;;;;37.00;16.93;100509.28;5397077;32;36380;-75
2022/07/14 07:12:51;;;;;;;;;;;;;;;37.58;16.21;100506.78;5388887;32;34746;-83
2022/07/14 07:15:53;;;;;;;;;;;;;;;36.43;17.41;100509.47;5382543;32;34599;-71
2022/07/14 07:18:56;;;;;;;;;;;;;;;36.24;17.84;100507.75;5403382;32;34715;-83
2022/07/14 07:21:59;;;;;;;;;;;;;;;35.38;18.47;100514.69;5378215;32;34695;-75
2022/07/14 07:25:00;;;;;;;;;;;;;;;35.27;18.57;100512.63;5406306;32;34914;-77
2022/07/14 07:28:03;;;;;;;;;;;;;;;34.81;19.50;100513.66;5388427;32;34764;-78
2022/07/14 07:31:05;;;;;;;;;;;;;;;33.79;20.26;100505.97;5396722;32;35330;-73
2022/07/14 07:34:08;;;;;;;;;;;;;;;34.36;19.68;100491.72;5398462;32;44638;-86
2022/07/14 07:37:10;;;;;;;;;;;;;;;35.60;18.17;100501.53;5386143;32;35320;-76
2022/07/14 07:40:28;;;;;;;;;;;;;;;35.68;18.11;100490.34;5404364;32;37103;-89
2022/07/14 07:43:30;;;;;;;;;;;;;;;35.08;19.35;100489.00;5405980;32;36257;-78
2022/07/14 07:46:32;;;;;;;;;;;;;;;35.30;18.36;100501.28;5410036;32;34834;-77
2022/07/14 07:49:34;;;;;;;;;;;;;;;36.48;17.40;100479.53;5395495;32;34883;-68
2022/07/14 07:52:37;;;;;;;;;;;;;;;36.98;16.50;100493.06;5397187;32;44423;-78
2022/07/14 07:55:40;;;;;;;;;;;;;;;36.59;17.00;100489.72;5396324;32;37939;-84
2022/07/14 07:58:42;;;;;;;;;;;;;;;38.20;15.44;100493.53;5377958;32;34210;-73
2022/07/14 08:01:45;;;;;;;;;;;;;;;38.29;14.90;100483.06;5401377;32;34680;-69
2022/07/14 08:04:48;;;;;;;;;;;;;;;38.97;14.42;100492.50;5379735;32;34154;-67
2022/07/14 08:07:50;;;;;;;;;;;;;;;38.54;14.09;100490.19;5407437;32;34838;-72
2022/07/14 08:10:52;;;;;;;;;;;;;;;40.23;12.96;100484.00;5390455;32;34604;-75
2022/07/14 08:13:54;;;;;;;;;;;;;;;37.23;15.21;100486.59;5393565;32;35152;-69
2022/07/14 08:16:56;;;;;;;;;;;;;;;37.19;15.84;100490.91;5415821;32;34816;-76
2022/07/14 08:19:58;;;;;;;;;;;;;;;39.15;14.17;100480.44;5403709;32;34781;-71
2022/07/14 08:23:00;;;;;;;;;;;;;;;40.43;12.84;100470.50;5414825;32;34670;-80
2022/07/14 08:26:02;;;;;;;;;;;;;;;41.34;12.24;100475.50;5402189;32;35454;-77
2022/07/14 08:29:05;;;;;;;;;;;;;;;39.17;13.89;100481.94;5391404;32;34694;-71
2022/07/14 08:32:07;;;;;;;;;;;;;;;39.16;13.78;100479.41;5380443;32;46438;-68
2022/07/14 08:35:10;;;;;;;;;;;;;;;38.90;14.43;100478.91;5385556;32;34669;-69
2022/07/14 08:38:12;;;;;;;;;;;;;;;39.19;13.99;100481.66;5404239;32;35107;-70
2022/07/14 08:41:14;;;;;;;;;;;;;;;38.04;15.17;100475.03;5396549;32;36127;-68
2022/07/14 08:44:17;;;;;;;;;;;;;;;38.64;14.29;100469.25;5410302;32;34882;-69
2022/07/14 08:47:19;;;;;;;;;;;;;;;40.51;12.65;100463.75;5405022;32;36461;-72
2022/07/14 08:50:26;;;;;;;;;;;;;;;38.19;14.19;100466.31;5405220;32;34716;-70
2022/07/14 08:53:28;;;;;;;;;;;;;;;39.54;13.22;100470.47;5419205;32;36488;-68
2022/07/14 08:56:30;;;;;;;;;;;;;;;38.54;13.78;100466.31;5389118;32;35068;-70
2022/07/14 08:59:33;;;;;;;;;;;;;;;41.24;11.96;100445.06;5391492;32;36247;-69
2022/07/14 09:02:34;;;;;;;;;;;;;;;42.86;10.63;100450.87;5380569;32;33781;-76
2022/07/14 09:05:56;;;;;;;;;;;;;;;42.25;11.04;100446.97;5413551;32;35166;-72
2022/07/14 09:09:01;;;;;;;;;;;;;;;40.69;11.87;100448.84;5379488;32;33139;-70
2022/07/14 09:12:07;;;;;;;;;;;;;;;40.97;11.48;100432.12;5386666;32;34834;-71
2022/07/14 09:19:06;;;;;;;;;;;;;;;39.84;12.62;100434.41;5351503;32;35152;-74
2022/07/14 09:22:08;;;;;;;;;;;;;;;41.36;11.54;100432.81;5401482;32;47412;-70
2022/07/14 09:25:13;;;;;;;;;;;;;;;42.11;10.99;100417.06;5374788;32;36896;-68
2022/07/14 09:28:15;;;;;;;;;;;;;;;40.85;11.80;100431.41;5391715;32;35232;-78
2022/07/14 09:31:21;;;;;;;;;;;;;;;41.70;11.31;100417.88;5390603;32;36225;-67
2022/07/14 09:34:26;;;;;;;;;;;;;;;44.07;9.16;100400.59;5394596;32;34480;-69
2022/07/14 09:37:28;;;;;;;;;;;;;;;44.49;8.88;100405.69;5401348;32;35147;-74
2022/07/14 09:40:30;;;;;;;;;;;;;;;41.50;10.95;100404.78;5396770;32;35447;-71
2022/07/14 09:43:36;;;;;;;;;;;;;;;38.97;12.56;100418.31;5403087;32;44645;-72
2022/07/14 09:46:54;;;;;;;;;;;;;;;40.06;11.79;100410.56;5394488;32;35187;-76
2022/07/14 09:49:57;;;;;;;;;;;;;;;42.55;10.33;100407.63;5394386;32;34946;-76
2022/07/14 09:53:35;;;;;;;;;;;;;;;41.77;10.73;100407.47;5402990;32;36457;-72
2022/07/14 09:56:37;;;;;;;;;;;;;;;39.15;12.67;100422.75;5352916;32;44464;-68
2022/07/14 09:59:43;;;;;;;;;;;;;;;39.22;12.87;100409.69;5358982;32;35230;-77
2022/07/14 10:02:45;;;;;;;;;;;;;;;38.66;13.25;100400.38;5385121;32;35376;-68
2022/07/14 10:05:48;;;;;;;;;;;;;;;41.31;11.10;100399.63;5391724;32;35083;-82
2022/07/14 10:09:10;;;;;;;;;;;;;;;42.68;10.11;100387.81;5394449;32;45214;-67
2022/07/14 10:12:13;;;;;;;;;;;;;;;41.08;11.00;100394.44;5395325;32;34869;-70
2022/07/14 10:15:15;;;;;;;;;;;;;;;40.13;11.80;100387.53;5390229;32;36482;-68
2022/07/14 10:18:17;;;;;;;;;;;;;;;40.06;11.66;100382.19;5396201;32;34234;-72
2022/07/14 10:21:19;;;;;;;;;;;;;;;43.73;9.38;100381.78;5388627;32;35814;-69
2022/07/14 10:24:22;;;;;;;;;;;;;;;42.24;10.01;100381.81;5400576;32;34061;-92
2022/07/14 10:27:27;;;;;;;;;;;;;;;42.49;10.26;100372.78;5401032;32;34803;-73
2022/07/14 10:30:34;;;;;;;;;;;;;;;42.65;9.60;100377.31;5398641;32;35159;-74
2022/07/14 10:33:40;;;;;;;;;;;;;;;41.42;10.35;100359.22;5386409;32;44492;-81
2022/07/14 10:36:45;;;;;;;;;;;;;;;41.44;10.47;100367.22;5380437;32;34825;-80
2022/07/14 10:39:57;;;;;;;;;;;;;;;41.73;10.27;100363.00;5398090;32;36364;-68
2022/07/14 10:42:59;;;;;;;;;;;;;;;42.04;10.03;100352.97;5378525;32;36901;-80
2022/07/14 10:46:06;;;;;;;;;;;;;;;41.51;10.54;100363.13;5411005;32;35210;-71
2022/07/14 10:49:11;;;;;;;;;;;;;;;43.55;9.13;100349.19;5380331;32;44459;-79
2022/07/14 10:52:23;;;;;;;;;;;;;;;44.53;8.67;100341.09;5403828;32;34705;-72
2022/07/14 10:55:25;;;;;;;;;;;;;;;42.43;9.99;100349.84;5406092;32;37404;-72
2022/07/14 10:58:27;;;;;;;;;;;;;;;42.13;10.07;100331.22;5387689;32;36111;-81
2022/07/14 11:01:29;;;;;;;;;;;;;;;42.65;9.35;100339.47;5402819;32;35011;-72
2022/07/14 11:04:55;;;;;;;;;;;;;;;43.63;8.64;100334.78;5389542;32;35181;-81
2022/07/14 11:08:03;;;;;;;;;;;;;;;40.51;10.51;100323.31;5401599;32;34762;-78
2022/07/14 11:11:08;;;;;;;;;;;;;;;43.14;9.04;100314.06;5382837;32;36422;-71
2022/07/14 11:14:13;;;;;;;;;;;;;;;42.49;9.74;100314.78;5399782;32;43265;-71
2022/07/14 11:17:37;;;;;;;;;;;;;;;44.42;8.23;100303.50;5405103;32;35197;-79
2022/07/14 11:20:56;;;;;;;;;;;;;;;40.50;10.90;100299.62;5379840;32;46746;-70
2022/07/14 11:23:58;;;;;;;;;;;;;;;42.88;9.35;100299.38;5382394;32;35545;-71
2022/07/14 11:27:19;;;;;;;;;;;;;;;40.85;10.25;100311.00;5372194;32;34638;-71
2022/07/14 11:30:21;;;;;;;;;;;;;;;43.12;8.68;100308.00;5397101;32;35194;-75
2022/07/14 11:33:31;;;;;;;;;;;;;;;43.56;8.42;100299.13;5405339;32;34574;-67
2022/07/14 11:36:33;;;;;;;;;;;;;;;41.73;9.49;100293.19;5398218;32;36221;-71
2022/07/14 11:39:55;;;;;;;;;;;;;;;42.89;8.96;100306.56;5399025;32;35017;-73
2022/07/14 11:43:16;;;;;;;;;;;;;;;43.37;8.62;100296.06;5385083;32;35592;-68
2022/07/14 11:46:19;;;;;;;;;;;;;;;41.30;9.79;100301.47;5395033;32;36173;-71
2022/07/14 11:49:22;;;;;;;;;;;;;;;40.15;10.41;100287.09;5394743;32;36074;-79
2022/07/14 11:52:25;;;;;;;;;;;;;;;40.06;10.51;100291.37;5398535;32;35212;-76
2022/07/14 11:55:27;;;;;;;;;;;;;;;40.32;10.35;100304.38;5409484;32;34775;-75
2022/07/14 11:58:29;;;;;;;;;;;;;;;38.88;11.53;100293.41;5383342;32;36265;-74
2022/07/14 12:01:34;;;;;;;;;;;;;;;39.27;11.26;100286.94;5380515;32;34691;-79
2022/07/14 12:04:53;;;;;;;;;;;;;;;39.21;11.52;100273.38;5381143;32;44258;-71
2022/07/14 12:07:55;;;;;;;;;;;;;;;40.64;10.49;100262.28;5341769;32;34722;-70
2022/07/14 12:11:03;;;;;;;;;;;;;;;41.41;9.92;100274.78;5349725;32;35238;-71
2022/07/14 12:14:06;;;;;;;;;;;;;;;41.73;9.49;100263.66;5378042;32;35003;-71
2022/07/14 12:17:08;;;;;;;;;;;;;;;42.43;9.18;100256.78;5395590;32;45682;-70
2022/07/14 12:20:10;;;;;;;;;;;;;;;41.37;9.93;100266.25;5386918;32;36652;-64
2022/07/14 12:23:13;;;;;;;;;;;;;;;38.07;11.82;100268.78;5396632;32;34457;-89
2022/07/14 12:26:15;;;;;;;;;;;;;;;37.81;12.30;100267.44;5380330;32;944669;-67
2022/07/14 12:29:17;;;;;;;;;;;;;;;38.86;11.66;100266.19;5374952;32;34809;-76
2022/07/14 12:32:24;;;;;;;;;;;;;;;37.83;12.17;100265.28;5412583;32;34758;-72
2022/07/14 12:35:26;;;;;;;;;;;;;;;37.25;12.63;100257.06;5390051;32;36360;-71
2022/07/14 12:38:28;;;;;;;;;;;;;;;38.11;12.01;100263.63;5390382;32;34912;-68
2022/07/14 12:41:30;;;;;;;;;;;;;;;38.63;11.49;100247.91;5395289;32;35044;-80
2022/07/14 12:44:32;;;;;;;;;;;;;;;38.41;11.85;100252.44;5393786;32;35991;-83
2022/07/14 12:47:49;;;;;;;;;;;;;;;36.90;12.48;100249.63;5414698;32;44430;-80
2022/07/14 12:50:51;;;;;;;;;;;;;;;37.86;11.86;100240.09;5400397;32;34723;-71
2022/07/14 12:53:59;;;;;;;;;;;;;;;37.84;11.88;100238.69;5404411;32;37847;-72
2022/07/14 12:57:01;;;;;;;;;;;;;;;37.01;12.64;100246.06;5394129;32;34719;-72
2022/07/14 13:00:11;;;;;;;;;;;;;;;36.98;12.44;100235.59;5358470;32;34957;-69
2022/07/14 13:03:14;;;;;;;;;;;;;;;37.83;11.65;100235.09;5391282;32;45410;-72
2022/07/14 13:06:16;;;;;;;;;;;;;;;38.02;11.68;100235.75;5385985;32;36195;-71
2022/07/14 13:09:18;;;;;;;;;;;;;;;37.78;11.86;100224.00;5395484;32;35142;-70
2022/07/14 13:12:27;;;;;;;;;;;;;;;37.21;12.15;100217.50;5393244;32;36300;-66
2022/07/14 13:15:29;;;;;;;;;;;;;;;37.41;12.23;100216.06;5388566;32;34821;-69
2022/07/14 13:18:31;;;;;;;;;;;;;;;37.65;12.15;100219.59;5397272;32;33777;-70
2022/07/14 13:21:52;;;;;;;;;;;;;;;37.29;12.11;100211.62;5388317;32;36771;-72
2022/07/14 13:24:55;;;;;;;;;;;;;;;37.55;11.75;100210.31;5403167;32;34743;-73
2022/07/14 13:27:57;;;;;;;;;;;;;;;36.87;12.28;100211.78;5388283;32;34668;-76
2022/07/14 13:30:59;;;;;;;;;;;;;;;37.07;12.24;100211.41;5396343;32;34697;-69
2022/07/14 13:34:02;;;;;;;;;;;;;;;36.67;12.65;100205.75;5396303;32;34701;-72
2022/07/14 13:37:04;;;;;;;;;;;;;;;37.66;11.87;100204.81;5377300;32;34745;-69
2022/07/14 13:40:06;;;;;;;;;;;;;;;36.91;12.42;100198.44;5403458;32;44337;-73
2022/07/14 13:43:08;;;;;;;;;;;;;;;37.30;12.14;100194.16;5396031;32;35702;-75
2022/07/14 13:46:13;;;;;;;;;;;;;;;37.35;12.15;100191.53;5412609;32;34932;-75
2022/07/14 13:49:16;;;;;;;;;;;;;;;37.36;12.30;100196.78;5390338;32;36063;-77
2022/07/14 13:52:19;;;;;;;;;;;;;;;36.22;13.23;100187.06;5392530;32;34788;-72
2022/07/14 13:55:21;;;;;;;;;;;;;;;36.44;13.08;100182.72;5397593;32;36277;-74
2022/07/14 13:58:23;;;;;;;;;;;;;;;37.17;12.69;100183.44;5385104;32;34982;-80
2022/07/14 14:01:25;;;;;;;;;;;;;;;37.88;11.97;100161.16;5393046;32;37678;-72
2022/07/14 14:04:28;;;;;;;;;;;;;;;37.67;12.21;100168.09;5393025;32;34598;-72
2022/07/14 14:07:30;;;;;;;;;;;;;;;37.75;12.17;100163.31;5391676;32;33591;-72
2022/07/14 14:10:32;;;;;;;;;;;;;;;36.80;12.81;100165.31;5395629;32;35434;-72
2022/07/14 14:13:37;;;;;;;;;;;;;;;36.74;13.00;100165.41;5400555;32;44425;-72
2022/07/14 14:16:39;;;;;;;;;;;;;;;36.71;13.21;100164.00;5401366;32;37055;-73
2022/07/14 14:19:49;;;;;;;;;;;;;;;37.20;12.74;100172.81;5381165;32;35949;-83
2022/07/14 14:22:51;;;;;;;;;;;;;;;37.00;12.81;100153.19;5414117;32;35980;-80
2022/07/14 14:25:53;;;;;;;;;;;;;;;36.77;12.86;100148.50;5396989;32;34962;-82
2022/07/14 14:28:55;;;;;;;;;;;;;;;37.08;12.88;100145.44;5404533;32;35884;-73
2022/07/14 14:31:58;;;;;;;;;;;;;;;36.91;12.93;100146.41;5396613;32;34624;-79
2022/07/14 14:35:00;;;;;;;;;;;;;;;36.81;13.10;100146.97;5383395;32;36328;-81
2022/07/14 14:38:02;;;;;;;;;;;;;;;36.51;13.10;100131.47;5404763;32;34927;-74
2022/07/14 14:41:04;;;;;;;;;;;;;;;37.18;12.70;100147.56;5383468;32;36486;-83
2022/07/14 14:44:07;;;;;;;;;;;;;;;36.46;12.87;100131.34;5426445;32;44569;-85
2022/07/14 14:47:09;;;;;;;;;;;;;;;36.83;12.88;100139.34;5393323;32;35417;-86
2022/07/14 14:50:11;;;;;;;;;;;;;;;36.90;12.74;100144.72;5411922;32;35664;-82
2022/07/14 14:53:13;;;;;;;;;;;;;;;37.57;12.65;100140.50;5403122;32;35429;-83
2022/07/14 14:56:15;;;;;;;;;;;;;;;37.72;12.42;100111.69;5402230;32;36306;-74
2022/07/14 14:59:18;;;;;;;;;;;;;;;37.02;13.01;100129.94;5391820;32;34937;-73
2022/07/14 15:02:26;;;;;;;;;;;;;;;37.19;12.91;100121.84;5384431;32;35250;-76
2022/07/14 15:05:28;;;;;;;;;;;;;;;35.97;14.06;100116.91;5402136;32;35251;-81
2022/07/14 15:08:30;;;;;;;;;;;;;;;36.36;13.77;100100.94;5404015;32;35928;-84
2022/07/14 15:11:32;;;;;;;;;;;;;;;37.21;13.09;100116.13;5414214;32;35171;-74
2022/07/14 15:14:34;;;;;;;;;;;;;;;36.45;13.76;100101.47;5398452;32;34572;-73
2022/07/14 15:17:36;;;;;;;;;;;;;;;36.96;13.27;100100.78;5386456;32;44235;-86
2022/07/14 15:20:38;;;;;;;;;;;;;;;37.29;12.93;100102.03;5417471;32;34733;-75
2022/07/14 15:23:41;;;;;;;;;;;;;;;37.12;13.05;100091.84;5407989;32;37045;-83
2022/07/14 15:26:43;;;;;;;;;;;;;;;37.05;13.36;100091.13;5412676;32;34641;-83
2022/07/14 15:30:05;;;;;;;;;;;;;;;36.97;13.64;100094.25;5403666;32;35967;-87
2022/07/14 15:33:07;;;;;;;;;;;;;;;36.63;13.97;100084.09;5399835;32;44205;-87
2022/07/14 15:36:09;;;;;;;;;;;;;;;37.22;13.30;100084.91;5406012;32;35372;-88
2022/07/14 15:42:32;;;;;;;;;;;;;;;36.42;13.90;100077.31;5422782;32;34548;-82
2022/07/14 15:45:34;;;;;;;;;;;;;;;36.73;13.79;100073.41;5410011;32;35819;-74
2022/07/14 15:48:36;;;;;;;;;;;;;;;37.21;13.42;100084.06;5407527;32;42704;-88
2022/07/14 15:51:38;;;;;;;;;;;;;;;36.79;13.44;100073.28;5403174;32;35804;-74
2022/07/14 15:54:40;;;;;;;;;;;;;;;37.18;13.27;100076.34;5399947;32;34868;-77
2022/07/14 15:57:42;;;;;;;;;;;;;;;36.42;13.77;100066.38;5418911;32;36797;-86
2022/07/14 16:00:45;;;;;;;;;;;;;;;37.82;13.17;100054.34;5388394;32;35212;-82